Time;durP1;ratioP1;P1;durP2;ratioP2;P2;SDS_P1;SDS_P2;PMS_P1;PMS_P2;Temp;Humidity;BMP_temperature;BMP_pressure;BME280_temperature;BME280_humidity;BME280_pressure;Samples;Min_cycle;Max_cycle;Signal;HPM_P1;HPM_P2
2022/04/04 00:00:22;;;;;;;10.27;4.63;;;-6.10;99.90;;;;;;4162567;28;20660;-72
2022/04/04 00:02:22;;;;;;;6.60;3.80;;;-6.10;99.90;;;;;;4163244;28;20720;-71
2022/04/04 00:04:23;;;;;;;7.17;4.80;;;-6.20;99.90;;;;;;4163834;28;20286;-71
2022/04/04 00:06:24;;;;;;;7.33;4.87;;;-6.20;99.90;;;;;;4163456;28;20222;-71
2022/04/04 00:08:25;;;;;;;8.27;4.40;;;-6.20;99.90;;;;;;4163761;28;20195;-71
2022/04/04 00:10:25;;;;;;;7.55;4.88;;;-6.20;99.90;;;;;;4163844;28;20192;-71
2022/04/04 00:12:27;;;;;;;8.97;4.70;;;-6.30;99.90;;;;;;4163025;28;20206;-71
2022/04/04 00:14:27;;;;;;;8.20;4.60;;;-6.30;99.90;;;;;;4162126;28;20195;-71
2022/04/04 00:16:28;;;;;;;11.07;4.97;;;-6.40;99.90;;;;;;4163174;28;20231;-72
2022/04/04 00:18:29;;;;;;;6.10;4.03;;;-6.40;99.90;;;;;;4163389;28;20192;-71
2022/04/04 00:20:29;;;;;;;7.43;4.23;;;-6.40;99.90;;;;;;4161965;28;20185;-72
2022/04/04 00:22:30;;;;;;;5.90;4.03;;;-6.50;99.90;;;;;;4162859;28;20249;-71
2022/04/04 00:24:32;;;;;;;8.80;4.23;;;-6.50;99.90;;;;;;4163045;28;20190;-72
2022/04/04 00:26:33;;;;;;;5.97;4.38;;;-6.70;99.90;;;;;;4162872;28;20212;-71
2022/04/04 00:28:33;;;;;;;8.90;4.40;;;-6.80;99.90;;;;;;4145670;28;20236;-71
2022/04/04 00:30:34;;;;;;;6.87;4.60;;;-7.00;99.90;;;;;;4163407;28;20442;-71
2022/04/04 00:32:36;;;;;;;6.67;4.03;;;-7.00;99.90;;;;;;4162708;28;20664;-71
2022/04/04 00:34:37;;;;;;;7.15;4.25;;;-7.00;99.90;;;;;;4161936;28;20898;-71
2022/04/04 00:36:39;;;;;;;5.90;4.30;;;-7.00;99.90;;;;;;4162068;28;20210;-71
2022/04/04 00:38:40;;;;;;;6.15;4.63;;;-6.90;99.90;;;;;;4163292;28;20866;-72
2022/04/04 00:40:42;;;;;;;7.65;3.83;;;-6.90;99.90;;;;;;4162861;28;20190;-71
2022/04/04 00:42:43;;;;;;;8.52;4.07;;;-6.90;99.90;;;;;;4161114;28;20284;-71
2022/04/04 00:44:45;;;;;;;6.83;4.17;;;-6.90;99.90;;;;;;4162808;28;20195;-71
2022/04/04 00:46:46;;;;;;;7.47;4.00;;;-6.90;99.90;;;;;;4162615;28;20207;-71
2022/04/04 00:48:48;;;;;;;6.93;4.47;;;-6.90;99.90;;;;;;4161869;28;20192;-71
2022/04/04 00:50:48;;;;;;;5.80;3.80;;;-6.90;99.90;;;;;;4161110;28;20275;-71
2022/04/04 00:52:50;;;;;;;6.57;3.87;;;-7.00;99.90;;;;;;4161402;28;20200;-71
2022/04/04 00:54:51;;;;;;;7.10;4.30;;;-7.00;99.90;;;;;;4161868;28;20179;-71
2022/04/04 00:56:52;;;;;;;7.27;3.73;;;-7.00;99.90;;;;;;4162809;28;20249;-71
2022/04/04 00:58:53;;;;;;;6.47;3.55;;;-7.00;99.90;;;;;;4161422;28;20690;-71
2022/04/04 01:00:54;;;;;;;7.25;4.68;;;-7.10;99.90;;;;;;4161406;28;20185;-71
2022/04/04 01:02:55;;;;;;;8.07;4.43;;;-7.20;99.90;;;;;;4160844;28;20170;-71
2022/04/04 01:04:56;;;;;;;7.30;4.07;;;-7.20;99.90;;;;;;4161715;28;20557;-71
2022/04/04 01:07:01;;;;;;;7.83;4.60;;;-7.10;99.90;;;;;;4161383;28;20209;-71
2022/04/04 01:09:03;;;;;;;6.75;4.15;;;-7.10;99.90;;;;;;4161886;28;20179;-71
2022/04/04 01:11:04;;;;;;;7.05;3.75;;;-7.00;99.90;;;;;;4162847;28;20568;-71
2022/04/04 01:13:04;;;;;;;5.77;4.50;;;-7.10;99.90;;;;;;4160926;28;20202;-72
2022/04/04 01:15:05;;;;;;;7.13;4.40;;;-7.10;99.90;;;;;;4162553;28;20208;-71
2022/04/04 01:17:07;;;;;;;7.87;4.50;;;-7.00;99.90;;;;;;4162221;28;20303;-71
2022/04/04 01:19:08;;;;;;;5.65;3.90;;;-7.00;99.90;;;;;;4160961;28;20860;-71
2022/04/04 01:21:09;;;;;;;7.43;3.20;;;-7.00;99.90;;;;;;4161709;28;20213;-71
2022/04/04 01:23:13;;;;;;;5.88;3.47;;;-6.90;99.90;;;;;;4162283;28;20189;-72
2022/04/04 01:25:16;;;;;;;5.20;2.97;;;-6.80;99.90;;;;;;4161095;28;20208;-72
2022/04/04 01:27:18;;;;;;;5.60;3.55;;;-6.70;99.90;;;;;;4162114;28;20205;-72
2022/04/04 01:29:23;;;;;;;6.63;4.25;;;-6.80;99.90;;;;;;4161425;28;20196;-71
2022/04/04 01:31:23;;;;;;;6.00;4.15;;;-6.90;99.90;;;;;;4160771;28;20220;-71
2022/04/04 01:33:24;;;;;;;4.67;3.20;;;-7.00;99.90;;;;;;4161977;28;20258;-71
2022/04/04 01:35:25;;;;;;;5.23;3.53;;;-7.10;99.90;;;;;;4162169;28;20230;-71
2022/04/04 01:37:26;;;;;;;5.73;3.23;;;-7.10;99.90;;;;;;4160983;28;20753;-71
2022/04/04 01:39:26;;;;;;;5.77;3.80;;;-7.20;99.90;;;;;;4162387;28;20207;-71
2022/04/04 01:41:27;;;;;;;5.20;3.30;;;-7.30;99.90;;;;;;4160653;28;20232;-71
2022/04/04 01:43:28;;;;;;;6.30;3.83;;;-7.30;99.90;;;;;;4162190;28;20266;-71
2022/04/04 01:47:48;;;;;;;7.38;3.95;;;-7.30;99.90;;;;;;4162184;28;20722;-71
2022/04/04 01:49:48;;;;;;;6.03;3.90;;;-7.30;99.90;;;;;;4162353;28;20191;-71
2022/04/04 01:51:49;;;;;;;5.93;3.50;;;-7.20;99.90;;;;;;4161327;28;20193;-71
2022/04/04 01:53:51;;;;;;;7.23;4.03;;;-7.20;99.90;;;;;;4162324;28;20184;-71
2022/04/04 01:55:58;;;;;;;5.55;3.42;;;-7.30;99.90;;;;;;4144531;28;20282;-71
2022/04/04 01:57:59;;;;;;;6.03;3.65;;;-7.40;99.90;;;;;;4168414;28;20173;-71
2022/04/04 01:59:59;;;;;;;5.67;3.13;;;-7.60;99.90;;;;;;4162700;28;20185;-71
2022/04/04 02:02:00;;;;;;;5.93;3.70;;;-7.60;99.90;;;;;;4161735;28;20189;-71
2022/04/04 02:04:02;;;;;;;7.80;3.90;;;-7.50;99.90;;;;;;4161663;28;20234;-71
2022/04/04 02:06:03;;;;;;;6.85;4.13;;;-7.50;99.90;;;;;;4160932;28;20205;-71
2022/04/04 02:08:05;;;;;;;4.57;3.08;;;-7.50;99.90;;;;;;4160648;28;20194;-71
2022/04/04 02:10:06;;;;;;;6.22;3.70;;;-7.50;99.90;;;;;;4162011;28;20190;-71
2022/04/04 02:12:09;;;;;;;6.45;3.90;;;-7.50;99.90;;;;;;4161408;28;20190;-72
2022/04/04 02:14:10;;;;;;;4.97;3.33;;;-7.60;99.90;;;;;;4161789;28;20195;-71
2022/04/04 02:16:11;;;;;;;5.60;3.13;;;-7.60;99.90;;;;;;4162084;28;20237;-71
2022/04/04 02:18:12;;;;;;;6.28;3.85;;;-7.70;99.90;;;;;;4160391;28;20222;-71
2022/04/04 02:20:12;;;;;;;5.57;3.87;;;-7.70;99.90;;;;;;4161472;28;20243;-71
2022/04/04 02:22:13;;;;;;;5.97;3.60;;;-7.70;99.90;;;;;;4161338;28;20737;-71
2022/04/04 02:24:13;;;;;;;5.60;3.37;;;-7.70;99.90;;;;;;4160485;28;20906;-71
2022/04/04 02:26:14;;;;;;;5.17;3.43;;;-7.70;99.90;;;;;;4160800;28;20707;-71
2022/04/04 02:28:16;;;;;;;5.20;3.60;;;-7.70;99.90;;;;;;4161084;28;20189;-71
2022/04/04 02:30:17;;;;;;;6.35;3.53;;;-7.70;99.90;;;;;;4161932;28;20287;-71
2022/04/04 02:32:19;;;;;;;7.77;3.80;;;-7.70;99.90;;;;;;4159857;28;20193;-71
2022/04/04 02:34:20;;;;;;;5.57;3.15;;;-7.60;99.90;;;;;;4161753;28;20189;-71
2022/04/04 02:36:20;;;;;;;5.30;4.07;;;-7.60;99.90;;;;;;4160548;28;20215;-71
2022/04/04 02:38:24;;;;;;;8.93;4.20;;;-7.70;99.90;;;;;;4160320;28;20685;-71
2022/04/04 02:40:25;;;;;;;5.25;3.63;;;-7.80;99.90;;;;;;4160491;28;20255;-71
2022/04/04 02:42:26;;;;;;;6.22;3.78;;;-7.80;99.90;;;;;;4159890;28;20673;-71
2022/04/04 02:44:27;;;;;;;4.57;3.20;;;-7.90;99.90;;;;;;4160473;28;20194;-71
2022/04/04 02:46:27;;;;;;;5.38;3.60;;;-7.90;99.90;;;;;;4162208;28;20243;-71
2022/04/04 02:48:28;;;;;;;5.33;3.87;;;-7.90;99.90;;;;;;4161709;28;20660;-71
2022/04/04 02:50:29;;;;;;;5.70;3.27;;;-7.90;99.90;;;;;;4159382;28;20184;-70
2022/04/04 02:52:30;;;;;;;5.20;2.90;;;-8.00;99.90;;;;;;4160453;28;20805;-71
2022/04/04 02:54:30;;;;;;;4.80;3.40;;;-8.00;99.90;;;;;;4162050;28;20374;-70
2022/04/04 02:56:32;;;;;;;5.43;3.80;;;-8.00;99.90;;;;;;4162126;28;20234;-70
2022/04/04 02:58:32;;;;;;;5.55;3.65;;;-8.10;99.90;;;;;;4162216;28;20190;-71
2022/04/04 03:00:33;;;;;;;5.57;3.37;;;-8.10;99.90;;;;;;4160971;28;20269;-71
2022/04/04 03:02:35;;;;;;;5.40;3.87;;;-8.00;99.90;;;;;;4161715;28;20766;-71
2022/04/04 03:04:36;;;;;;;6.78;4.25;;;-8.00;99.90;;;;;;4160911;28;20223;-72
2022/04/04 03:06:36;;;;;;;7.80;4.13;;;-8.00;99.90;;;;;;4162474;28;20209;-72
2022/04/04 03:08:37;;;;;;;7.80;3.70;;;-8.00;99.90;;;;;;4161755;28;20192;-71
2022/04/04 03:10:38;;;;;;;5.53;3.63;;;-8.00;99.90;;;;;;4163297;28;20264;-70
2022/04/04 03:12:44;;;;;;;7.70;4.05;;;-8.00;99.90;;;;;;4164153;28;20256;-71
2022/04/04 03:14:45;;;;;;;5.45;3.45;;;-8.00;99.90;;;;;;4163273;28;20265;-72
2022/04/04 03:16:45;;;;;;;6.13;3.87;;;-8.00;99.90;;;;;;4163456;28;20703;-72
2022/04/04 03:18:46;;;;;;;5.53;3.60;;;-8.00;99.90;;;;;;4164639;28;20208;-71
2022/04/04 03:20:47;;;;;;;4.63;2.80;;;-8.00;99.90;;;;;;4163449;28;20194;-71
2022/04/04 03:22:51;;;;;;;4.67;2.80;;;-8.00;99.90;;;;;;4163900;28;20194;-71
2022/04/04 03:24:52;;;;;;;4.80;3.13;;;-8.10;99.90;;;;;;4164704;28;20236;-72
2022/04/04 03:26:53;;;;;;;5.53;3.10;;;-8.10;99.90;;;;;;4164943;28;20614;-71
2022/04/04 03:28:53;;;;;;;6.80;3.83;;;-8.10;99.90;;;;;;4165000;28;20186;-71
2022/04/04 03:30:54;;;;;;;4.73;3.00;;;-8.00;99.90;;;;;;4163485;28;20194;-72
2022/04/04 03:32:57;;;;;;;6.17;4.57;;;-8.00;99.90;;;;;;4163934;28;20252;-72
2022/04/04 03:34:58;;;;;;;5.05;3.58;;;-8.10;99.90;;;;;;4163802;28;20194;-71
2022/04/04 03:36:59;;;;;;;4.60;2.90;;;-8.10;99.90;;;;;;4164457;28;20198;-71
2022/04/04 03:38:59;;;;;;;6.03;4.27;;;-8.10;99.90;;;;;;4164482;28;20441;-71
2022/04/04 03:41:00;;;;;;;6.37;4.07;;;-8.10;99.90;;;;;;4164313;28;20178;-71
2022/04/04 03:43:01;;;;;;;5.63;3.60;;;-8.10;99.90;;;;;;4164511;28;20213;-71
2022/04/04 03:45:02;;;;;;;5.67;3.90;;;-8.10;99.90;;;;;;4163947;28;20275;-70
2022/04/04 03:47:03;;;;;;;6.78;3.97;;;-8.10;99.90;;;;;;4164462;28;20210;-70
2022/04/04 03:49:06;;;;;;;7.38;3.75;;;-8.10;99.90;;;;;;4164150;28;20195;-70
2022/04/04 03:51:07;;;;;;;5.53;3.35;;;-8.10;99.90;;;;;;4163367;28;20209;-71
2022/04/04 03:53:07;;;;;;;5.40;3.30;;;-8.10;99.90;;;;;;4145974;28;20270;-71
2022/04/04 03:55:11;;;;;;;7.27;3.67;;;-8.10;99.90;;;;;;4147656;28;20215;-71
2022/04/04 03:57:12;;;;;;;7.70;3.35;;;-8.20;99.90;;;;;;4162684;28;20225;-71
2022/04/04 03:59:13;;;;;;;5.07;3.57;;;-8.20;99.90;;;;;;4164044;28;20668;-71
2022/04/04 04:01:13;;;;;;;6.47;3.43;;;-8.20;99.90;;;;;;4162656;28;20745;-71
2022/04/04 04:03:14;;;;;;;6.83;4.33;;;-8.20;99.90;;;;;;4163303;28;20186;-71
2022/04/04 04:05:15;;;;;;;6.43;4.80;;;-8.20;99.90;;;;;;4163480;28;20220;-71
2022/04/04 04:07:16;;;;;;;10.57;4.73;;;-8.30;99.90;;;;;;4163353;28;20210;-71
2022/04/04 04:09:17;;;;;;;8.02;5.13;;;-8.30;99.90;;;;;;4163293;28;20182;-71
2022/04/04 04:11:18;;;;;;;7.03;4.43;;;-8.30;99.90;;;;;;4161164;28;20691;-71
2022/04/04 04:13:19;;;;;;;6.28;4.30;;;-8.40;99.90;;;;;;4161856;28;20447;-71
2022/04/04 04:15:23;;;;;;;6.28;3.30;;;-8.40;99.90;;;;;;4162988;28;20325;-71
2022/04/04 04:17:24;;;;;;;6.55;5.05;;;-8.30;99.90;;;;;;4161780;28;20291;-71
2022/04/04 04:21:44;;;;;;;4.65;3.25;;;-8.30;99.90;;;;;;4162983;28;20651;-70
2022/04/04 04:23:45;;;;;;;7.37;3.83;;;-8.30;99.90;;;;;;4163606;28;20181;-72
2022/04/04 04:25:46;;;;;;;7.77;4.57;;;-8.30;99.90;;;;;;4164942;28;20286;-70
2022/04/04 04:27:47;;;;;;;6.80;4.15;;;-8.40;99.90;;;;;;4165988;28;20220;-70
2022/04/04 04:29:48;;;;;;;7.40;4.50;;;-8.30;99.90;;;;;;4164272;28;20193;-71
2022/04/04 04:31:49;;;;;;;5.57;3.87;;;-8.30;99.90;;;;;;4164302;28;20181;-71
2022/04/04 04:33:49;;;;;;;9.03;4.87;;;-8.40;99.90;;;;;;4162493;28;20205;-71
2022/04/04 04:35:50;;;;;;;8.60;5.77;;;-8.40;99.90;;;;;;4162289;28;20213;-71
2022/04/04 04:37:51;;;;;;;8.75;5.88;;;-8.40;99.90;;;;;;4162196;28;20178;-71
2022/04/04 04:39:53;;;;;;;8.03;4.77;;;-8.40;99.90;;;;;;4164905;28;20180;-71
2022/04/04 04:41:55;;;;;;;7.63;4.68;;;-8.40;99.90;;;;;;4164482;28;20177;-71
2022/04/04 04:43:56;;;;;;;6.95;4.45;;;-8.40;99.90;;;;;;4166111;28;20803;-71
2022/04/04 04:45:57;;;;;;;6.53;3.73;;;-8.30;99.90;;;;;;4166381;28;20199;-70
2022/04/04 04:47:57;;;;;;;6.53;4.00;;;-8.40;99.90;;;;;;4166230;28;20195;-71
2022/04/04 04:50:01;;;;;;;6.37;3.77;;;-8.30;99.90;;;;;;4164826;28;20195;-71
2022/04/04 04:52:03;;;;;;;5.68;3.55;;;-8.40;99.90;;;;;;4162098;28;20190;-71
2022/04/04 04:54:03;;;;;;;6.55;3.92;;;-8.50;99.90;;;;;;4166266;28;20292;-71
2022/04/04 04:56:04;;;;;;;7.47;4.10;;;-8.40;99.90;;;;;;4165744;28;20583;-71
2022/04/04 04:58:05;;;;;;;8.63;4.53;;;-8.30;99.90;;;;;;4166001;28;20182;-71
2022/04/04 05:00:10;;;;;;;6.93;4.03;;;-8.30;99.90;;;;;;4166318;28;20189;-71
2022/04/04 05:02:11;;;;;;;6.07;3.63;;;-8.30;99.90;;;;;;4164376;28;20197;-71
2022/04/04 05:04:11;;;;;;;7.17;4.20;;;-8.20;99.90;;;;;;4165774;28;20191;-71
2022/04/04 05:06:12;;;;;;;7.20;4.17;;;-8.30;99.90;;;;;;4165899;28;20602;-71
2022/04/04 05:08:13;;;;;;;9.07;4.37;;;-8.20;99.90;;;;;;4164491;28;20186;-71
2022/04/04 05:10:13;;;;;;;9.57;3.77;;;-8.20;99.90;;;;;;4165320;28;20230;-71
2022/04/04 05:12:14;;;;;;;8.73;4.80;;;-8.20;99.90;;;;;;4161728;28;20197;-71
2022/04/04 05:14:15;;;;;;;7.07;4.40;;;-8.20;99.90;;;;;;4161890;28;20189;-71
2022/04/04 05:16:16;;;;;;;5.93;4.20;;;-8.20;99.90;;;;;;4160837;28;20248;-71
2022/04/04 05:18:16;;;;;;;6.70;4.17;;;-8.20;99.90;;;;;;4161961;28;20210;-71
2022/04/04 05:20:17;;;;;;;6.30;4.20;;;-8.20;99.90;;;;;;4162658;28;20208;-71
2022/04/04 05:22:18;;;;;;;7.77;4.27;;;-8.10;99.90;;;;;;4160744;28;20206;-71
2022/04/04 05:24:19;;;;;;;6.22;3.92;;;-8.00;99.90;;;;;;4165903;28;20179;-71
2022/04/04 05:26:19;;;;;;;7.67;3.97;;;-8.00;99.90;;;;;;4164257;28;20267;-71
2022/04/04 05:28:20;;;;;;;5.83;4.17;;;-8.00;99.90;;;;;;4166050;28;20190;-71
2022/04/04 05:30:21;;;;;;;9.52;4.40;;;-8.00;99.90;;;;;;4148302;28;20193;-71
2022/04/04 05:32:22;;;;;;;7.10;4.03;;;-7.90;99.90;;;;;;4148978;28;20285;-71
2022/04/04 05:34:26;;;;;;;8.53;5.27;;;-7.80;99.90;;;;;;4159634;28;20199;-71
2022/04/04 05:36:28;;;;;;;8.65;4.97;;;-7.80;99.90;;;;;;4161552;28;20210;-71
2022/04/04 05:38:30;;;;;;;9.05;4.70;;;-7.80;99.90;;;;;;4160977;28;20570;-71
2022/04/04 05:40:31;;;;;;;8.05;4.68;;;-7.80;99.90;;;;;;4162304;28;20659;-71
2022/04/04 05:42:32;;;;;;;6.33;4.27;;;-7.80;99.90;;;;;;4161302;28;20197;-71
2022/04/04 05:44:32;;;;;;;7.37;4.20;;;-7.80;99.90;;;;;;4161850;28;20185;-71
2022/04/04 05:46:34;;;;;;;6.27;4.23;;;-7.80;99.90;;;;;;4161888;28;20266;-71
2022/04/04 05:48:34;;;;;;;10.43;4.28;;;-7.80;99.90;;;;;;4160861;28;20189;-71
2022/04/04 05:50:35;;;;;;;9.37;4.33;;;-7.70;99.90;;;;;;4161653;28;20249;-71
2022/04/04 05:52:36;;;;;;;7.90;4.20;;;-7.70;99.90;;;;;;4159986;28;20668;-71
2022/04/04 05:54:53;;;;;;;8.33;5.30;;;-7.60;99.90;;;;;;4160309;28;20260;-71
2022/04/04 05:56:54;;;;;;;8.00;4.40;;;-7.50;99.90;;;;;;4160504;28;20218;-71
2022/04/04 05:58:55;;;;;;;9.50;5.03;;;-7.30;99.90;;;;;;4160581;28;20563;-71
2022/04/04 06:00:56;;;;;;;8.57;5.33;;;-7.30;99.90;;;;;;4161315;28;20557;-71
2022/04/04 06:02:57;;;;;;;8.73;4.70;;;-7.20;99.90;;;;;;4159926;28;20184;-71
2022/04/04 06:04:57;;;;;;;17.45;5.57;;;-7.10;99.90;;;;;;4145843;28;20221;-71
2022/04/04 06:06:58;;;;;;;7.70;4.60;;;-7.00;99.90;;;;;;4153977;28;20194;-71
2022/04/04 06:08:59;;;;;;;10.70;5.77;;;-6.90;99.90;;;;;;4161893;28;20211;-71
2022/04/04 06:11:00;;;;;;;9.83;5.30;;;-6.80;99.90;;;;;;4162183;28;20188;-71
2022/04/04 06:13:00;;;;;;;8.90;5.20;;;-6.70;99.90;;;;;;4160046;28;20183;-71
2022/04/04 06:15:01;;;;;;;7.97;4.93;;;-6.60;99.90;;;;;;4161818;28;20179;-71
2022/04/04 06:17:06;;;;;;;9.10;5.13;;;-6.50;99.90;;;;;;4160533;28;20211;-71
2022/04/04 06:19:07;;;;;;;8.90;4.80;;;-6.40;99.90;;;;;;4160192;28;20206;-71
2022/04/04 06:21:07;;;;;;;7.87;5.17;;;-6.30;99.90;;;;;;4160994;28;20222;-71
2022/04/04 06:23:09;;;;;;;9.00;5.00;;;-6.20;99.90;;;;;;4161451;28;20245;-71
2022/04/04 06:25:14;;;;;;;8.30;5.13;;;-6.00;99.90;;;;;;4161706;28;20203;-71
2022/04/04 06:27:18;;;;;;;11.10;5.57;;;-5.90;99.90;;;;;;4161418;28;20685;-71
2022/04/04 06:29:19;;;;;;;8.38;5.07;;;-5.70;99.90;;;;;;4158189;28;20191;-72
2022/04/04 06:31:20;;;;;;;8.63;5.37;;;-5.60;99.90;;;;;;4159945;28;20295;-72
2022/04/04 06:33:20;;;;;;;7.43;4.60;;;-5.60;99.90;;;;;;4161081;28;20193;-71
2022/04/04 06:35:24;;;;;;;9.50;5.57;;;-5.60;99.90;;;;;;4161188;28;20208;-71
2022/04/04 06:37:24;;;;;;;7.63;4.95;;;-5.60;99.90;;;;;;4160460;28;20328;-71
2022/04/04 06:39:25;;;;;;;7.47;4.97;;;-5.50;99.90;;;;;;4161130;28;20192;-71
2022/04/04 06:41:26;;;;;;;7.93;4.90;;;-5.40;99.90;;;;;;4160822;28;20192;-70
2022/04/04 06:43:26;;;;;;;10.80;5.37;;;-5.40;99.90;;;;;;4161554;28;20195;-71
2022/04/04 06:45:27;;;;;;;6.77;4.57;;;-5.30;99.90;;;;;;4163957;28;20200;-71
2022/04/04 06:47:29;;;;;;;7.70;4.93;;;-5.10;99.90;;;;;;4164476;28;20188;-71
2022/04/04 06:49:29;;;;;;;10.68;4.68;;;-5.00;99.90;;;;;;4164552;28;20187;-70
2022/04/04 06:51:30;;;;;;;5.97;4.40;;;-4.90;99.90;;;;;;4162878;28;20730;-71
2022/04/04 06:53:31;;;;;;;7.63;4.33;;;-4.90;99.90;;;;;;4163146;28;20195;-71
2022/04/04 06:55:31;;;;;;;8.67;5.20;;;-4.80;99.90;;;;;;4163066;28;20205;-71
2022/04/04 06:57:32;;;;;;;6.73;4.90;;;-4.70;99.90;;;;;;4170897;28;20571;-71
2022/04/04 06:59:34;;;;;;;8.70;5.13;;;-4.80;99.90;;;;;;4177808;28;20667;-71
2022/04/04 07:01:35;;;;;;;7.47;4.68;;;-4.70;99.90;;;;;;4163781;28;20255;-72
2022/04/04 07:03:35;;;;;;;6.95;4.50;;;-4.70;99.90;;;;;;4162448;28;20215;-71
2022/04/04 07:05:36;;;;;;;8.07;4.67;;;-4.60;99.90;;;;;;4164154;28;20192;-70
2022/04/04 07:07:37;;;;;;;8.77;5.22;;;-4.40;99.90;;;;;;4163946;28;20193;-71
2022/04/04 07:09:38;;;;;;;10.23;5.77;;;-4.40;99.90;;;;;;4162358;28;20921;-71
2022/04/04 07:11:38;;;;;;;10.53;5.97;;;-4.30;99.90;;;;;;4157923;28;20271;-71
2022/04/04 07:13:40;;;;;;;8.17;5.10;;;-4.20;99.90;;;;;;4164318;28;20185;-71
2022/04/04 07:15:41;;;;;;;9.43;5.30;;;-4.20;99.90;;;;;;4164162;28;20708;-71
2022/04/04 07:17:43;;;;;;;8.67;4.90;;;-4.10;99.90;;;;;;4170037;28;20468;-69
2022/04/04 07:19:44;;;;;;;7.97;4.50;;;-4.10;99.90;;;;;;4179639;28;20426;-71
2022/04/04 07:21:44;;;;;;;8.23;4.70;;;-3.90;99.90;;;;;;4178218;28;20944;-71
2022/04/04 07:23:45;;;;;;;10.07;5.83;;;-3.70;99.90;;;;;;4163449;28;20687;-71
2022/04/04 07:25:48;;;;;;;7.90;4.73;;;-3.60;99.90;;;;;;4162819;28;20691;-71
2022/04/04 07:27:49;;;;;;;7.20;4.70;;;-3.40;99.90;;;;;;4162929;28;20907;-72
2022/04/04 07:29:49;;;;;;;9.43;4.90;;;-3.20;99.90;;;;;;4162856;28;20431;-72
2022/04/04 07:31:51;;;;;;;13.97;5.60;;;-3.00;99.90;;;;;;4162212;28;20203;-71
2022/04/04 07:33:51;;;;;;;4.97;3.43;;;-2.80;99.90;;;;;;4163394;28;20205;-72
2022/04/04 07:35:52;;;;;;;5.50;3.67;;;-2.60;99.30;;;;;;4163319;28;20471;-71
2022/04/04 07:37:53;;;;;;;5.27;3.70;;;-2.30;97.80;;;;;;4163661;28;20239;-71
2022/04/04 07:39:54;;;;;;;5.63;4.00;;;-2.20;98.10;;;;;;4162376;28;20229;-72
2022/04/04 07:41:55;;;;;;;6.00;3.30;;;-2.10;96.20;;;;;;4163387;28;20657;-72
2022/04/04 07:43:55;;;;;;;5.87;3.37;;;-2.10;96.20;;;;;;4163872;28;20173;-71
2022/04/04 07:45:56;;;;;;;6.03;3.63;;;-2.00;95.40;;;;;;4162651;28;20463;-72
2022/04/04 07:47:58;;;;;;;4.87;3.33;;;-1.80;95.60;;;;;;4163253;28;20674;-71
2022/04/04 07:49:59;;;;;;;4.93;3.87;;;-1.60;94.60;;;;;;4161770;28;20216;-71
2022/04/04 07:52:00;;;;;;;6.83;3.93;;;-1.40;94.00;;;;;;4157692;28;20457;-74
2022/04/04 07:54:01;;;;;;;3.43;2.53;;;-1.30;93.70;;;;;;4156871;28;20190;-74
2022/04/04 07:56:01;;;;;;;3.83;2.83;;;-1.20;93.60;;;;;;4156820;28;20710;-73
2022/04/04 07:58:03;;;;;;;5.17;3.07;;;-1.00;91.60;;;;;;4161336;28;20566;-73
2022/04/04 08:00:07;;;;;;;4.90;3.20;;;-1.00;91.70;;;;;;4161979;28;20259;-73
2022/04/04 08:02:08;;;;;;;3.70;3.00;;;-0.70;91.30;;;;;;4161943;28;20435;-74
2022/04/04 08:04:09;;;;;;;5.33;3.63;;;-0.70;88.30;;;;;;4163636;28;20825;-73
2022/04/04 08:06:10;;;;;;;4.93;2.90;;;-0.60;83.60;;;;;;4163026;28;20253;-74
2022/04/04 08:08:11;;;;;;;5.43;2.67;;;-0.50;84.20;;;;;;4163234;28;20282;-74
2022/04/04 08:10:11;;;;;;;4.30;3.00;;;-0.40;82.10;;;;;;4161996;28;20975;-74
2022/04/04 08:12:13;;;;;;;3.40;2.93;;;-0.30;76.50;;;;;;4144814;28;20193;-74
2022/04/04 08:14:13;;;;;;;4.20;3.50;;;-0.20;79.00;;;;;;4161664;28;20192;-74
2022/04/04 08:16:14;;;;;;;3.67;3.00;;;-0.10;74.40;;;;;;4161199;28;20641;-74
2022/04/04 08:18:15;;;;;;;3.60;2.80;;;0.00;78.30;;;;;;4162817;28;20291;-72
2022/04/04 08:20:17;;;;;;;4.43;3.23;;;0.00;75.10;;;;;;4162656;28;20194;-72
2022/04/04 08:22:18;;;;;;;5.87;2.90;;;0.00;76.50;;;;;;4161122;28;20169;-74
2022/04/04 08:24:20;;;;;;;4.47;3.43;;;0.10;78.10;;;;;;4162861;28;20461;-73
2022/04/04 08:26:20;;;;;;;4.40;3.20;;;0.30;74.10;;;;;;4163134;28;20500;-74
2022/04/04 08:28:21;;;;;;;7.50;4.20;;;0.30;76.20;;;;;;4144805;28;20436;-71
2022/04/04 08:30:22;;;;;;;4.50;3.60;;;0.40;73.30;;;;;;4161419;28;20188;-73
2022/04/04 08:32:23;;;;;;;5.83;4.33;;;0.20;73.30;;;;;;4161953;28;20208;-75
2022/04/04 08:34:23;;;;;;;4.70;3.43;;;0.40;76.80;;;;;;4177115;28;20259;-77
2022/04/04 08:36:24;;;;;;;8.47;4.77;;;0.60;72.60;;;;;;4161856;28;20843;-77
2022/04/04 08:38:25;;;;;;;5.60;3.67;;;0.60;71.10;;;;;;4160902;28;20185;-77
2022/04/04 08:40:25;;;;;;;4.50;3.43;;;0.50;72.40;;;;;;4145043;28;20182;-77
2022/04/04 08:42:27;;;;;;;10.33;5.17;;;0.80;73.30;;;;;;4160909;28;20236;-77
2022/04/04 08:44:28;;;;;;;4.83;3.57;;;0.50;69.00;;;;;;4160887;28;20209;-77
2022/04/04 08:46:30;;;;;;;5.87;4.00;;;0.80;72.00;;;;;;4162577;28;20589;-76
2022/04/04 08:48:32;;;;;;;5.23;4.27;;;0.90;71.50;;;;;;4160913;28;20466;-74
2022/04/04 08:50:33;;;;;;;5.93;5.00;;;1.20;69.30;;;;;;4161222;28;20501;-74
2022/04/04 08:52:34;;;;;;;4.27;3.43;;;1.20;66.60;;;;;;4161786;28;20442;-71
2022/04/04 08:54:35;;;;;;;6.37;4.20;;;1.20;67.90;;;;;;4160420;28;20987;-71
2022/04/04 08:56:35;;;;;;;4.10;3.13;;;1.10;68.20;;;;;;4162239;28;20217;-75
2022/04/04 08:58:36;;;;;;;4.57;3.60;;;1.20;67.20;;;;;;4172669;28;20196;-74
2022/04/04 09:00:38;;;;;;;4.87;3.70;;;1.20;65.30;;;;;;4165290;28;20185;-71
2022/04/04 09:02:39;;;;;;;5.33;3.73;;;1.60;65.00;;;;;;4171726;28;20675;-77
2022/04/04 09:04:40;;;;;;;4.63;3.53;;;1.40;63.80;;;;;;4174537;28;20469;-72
2022/04/04 09:06:56;;;;;;;9.27;4.00;;;1.40;65.40;;;;;;4165846;28;20635;-74
2022/04/04 09:08:57;;;;;;;4.47;3.53;;;1.50;64.10;;;;;;4169946;28;20430;-75
2022/04/04 09:11:01;;;;;;;4.47;3.13;;;1.70;62.90;;;;;;4175682;28;20434;-75
2022/04/04 09:13:12;;;;;;;4.03;3.33;;;1.40;62.90;;;;;;4161193;28;20442;-72
2022/04/04 09:15:12;;;;;;;6.07;4.10;;;1.60;63.30;;;;;;4161378;28;20510;-70
2022/04/04 09:17:16;;;;;;;4.87;3.73;;;1.60;62.40;;;;;;4175508;28;20448;-73
2022/04/04 09:19:29;;;;;;;5.00;3.70;;;1.80;62.90;;;;;;4163915;28;20192;-74
2022/04/04 09:21:33;;;;;;;4.73;3.57;;;2.10;62.50;;;;;;4176911;28;20461;-74
2022/04/04 09:23:36;;;;;;;5.13;3.30;;;2.40;66.10;;;;;;4168435;28;20425;-69
2022/04/04 09:25:37;;;;;;;4.37;3.40;;;2.60;62.30;;;;;;4176007;28;21103;-70
2022/04/04 09:27:39;;;;;;;4.23;3.40;;;2.30;58.20;;;;;;4168730;28;20426;-70
2022/04/04 09:29:42;;;;;;;3.87;2.90;;;2.10;61.30;;;;;;4177284;28;20272;-72
2022/04/04 09:32:03;;;;;;;4.63;3.37;;;1.90;61.30;;;;;;4167687;28;20436;-72
2022/04/04 09:34:05;;;;;;;3.53;3.20;;;2.10;62.00;;;;;;4170657;28;20917;-70
2022/04/04 09:36:08;;;;;;;7.37;3.63;;;2.60;59.10;;;;;;4170716;28;20493;-74
2022/04/04 09:38:14;;;;;;;5.90;3.10;;;2.80;58.90;;;;;;4171402;28;20465;-76
2022/04/04 09:40:21;;;;;;;6.30;3.63;;;2.70;58.10;;;;;;4168896;28;20522;-75
2022/04/04 09:42:21;;;;;;;6.30;3.43;;;3.20;55.70;;;;;;4171035;28;20426;-76
2022/04/04 09:44:25;;;;;;;3.10;2.73;;;3.40;54.20;;;;;;4168008;28;21160;-76
2022/04/04 09:46:38;;;;;;;3.73;2.90;;;3.20;53.10;;;;;;4173840;28;20230;-75
2022/04/04 09:49:20;;;;;;;4.50;3.57;;;3.10;55.50;;;;;;4165253;28;20476;-75
2022/04/04 09:51:48;;;;;;;4.90;2.67;;;2.70;53.80;;;;;;4147987;28;20419;-70
2022/04/04 09:54:04;;;;;;;4.47;3.07;;;2.90;54.50;;;;;;4181387;28;20442;-72
2022/04/04 09:56:05;;;;;;;3.53;3.00;;;2.90;55.10;;;;;;4172250;28;20482;-69
2022/04/04 09:58:09;;;;;;;5.13;2.97;;;3.00;55.40;;;;;;4172869;28;20430;-74
2022/04/04 10:00:13;;;;;;;4.07;3.67;;;3.00;53.60;;;;;;4154984;28;20433;-73
2022/04/04 10:02:14;;;;;;;3.77;3.10;;;3.20;54.10;;;;;;4170022;28;20456;-75
2022/04/04 10:04:15;;;;;;;4.53;3.40;;;3.70;52.50;;;;;;4170079;28;20431;-73
2022/04/04 10:06:16;;;;;;;5.57;3.23;;;3.60;51.50;;;;;;4174099;28;20690;-74
2022/04/04 10:08:18;;;;;;;3.80;3.23;;;3.40;52.50;;;;;;4170893;28;20438;-76
2022/04/04 10:10:19;;;;;;;5.00;3.70;;;3.90;53.20;;;;;;4173277;28;20537;-74
2022/04/04 10:12:20;;;;;;;4.97;3.00;;;3.90;51.70;;;;;;4179675;28;20467;-74
2022/04/04 10:14:21;;;;;;;3.77;3.00;;;3.60;52.40;;;;;;4172871;28;20525;-78
2022/04/04 10:16:23;;;;;;;4.37;3.30;;;2.70;55.10;;;;;;4174562;28;20253;-75
2022/04/04 10:18:24;;;;;;;4.23;3.50;;;3.10;54.70;;;;;;4153071;28;20537;-74
2022/04/04 10:20:25;;;;;;;3.93;3.30;;;3.60;54.70;;;;;;4166219;28;20860;-72
2022/04/04 10:22:27;;;;;;;4.40;3.63;;;4.70;50.70;;;;;;4168477;28;20455;-75
2022/04/04 10:24:27;;;;;;;7.07;3.77;;;5.40;48.60;;;;;;4174366;28;20891;-74
2022/04/04 10:26:32;;;;;;;4.17;3.33;;;5.60;48.70;;;;;;4168896;28;20452;-73
2022/04/04 10:28:35;;;;;;;4.13;3.63;;;6.20;48.20;;;;;;4174854;28;20196;-73
2022/04/04 10:30:42;;;;;;;5.10;3.10;;;6.80;46.80;;;;;;4166202;28;20550;-76
2022/04/04 10:32:50;;;;;;;3.63;3.00;;;6.70;45.30;;;;;;4167582;28;20204;-78
2022/04/04 10:34:51;;;;;;;3.97;3.47;;;5.50;45.20;;;;;;4175257;28;20544;-73
2022/04/04 10:37:01;;;;;;;3.67;3.37;;;6.10;48.00;;;;;;4176843;28;20297;-75
2022/04/04 10:39:02;;;;;;;3.60;3.10;;;6.90;45.90;;;;;;4165281;28;20184;-74